Time;durP1;ratioP1;P1;durP2;ratioP2;P2;SDS_P1;SDS_P2;PMS_P1;PMS_P2;Temp;Humidity;BMP_temperature;BMP_pressure;BME280_temperature;BME280_humidity;BME280_pressure;Samples;Min_cycle;Max_cycle;Signal;HPM_P1;HPM_P2
2023/01/21 00:01:59;;;;;;;11.60;4.85;;;;;;;;;;8266291;28;20046;-86
2023/01/21 00:06:04;;;;;;;15.95;7.22;;;;;;;;;;8261068;28;20040;-86
2023/01/21 00:10:08;;;;;;;14.00;6.30;;;;;;;;;;8267454;28;20042;-88
2023/01/21 00:14:11;;;;;;;12.02;5.90;;;;;;;;;;8267751;28;20072;-86
2023/01/21 00:18:14;;;;;;;6.13;3.25;;;;;;;;;;8265960;28;20069;-84
2023/01/21 00:22:19;;;;;;;15.50;5.93;;;;;;;;;;8265852;28;20043;-87
2023/01/21 00:26:22;;;;;;;17.23;7.07;;;;;;;;;;8265511;28;20121;-85
2023/01/21 00:30:25;;;;;;;10.43;5.03;;;;;;;;;;8265412;28;20696;-88
2023/01/21 00:34:28;;;;;;;7.00;3.33;;;;;;;;;;8264883;28;20402;-88
2023/01/21 00:38:33;;;;;;;11.60;6.07;;;;;;;;;;8265364;28;20058;-87
2023/01/21 00:42:36;;;;;;;10.68;5.05;;;;;;;;;;8266323;28;20603;-90
2023/01/21 00:46:39;;;;;;;9.80;4.22;;;;;;;;;;8265593;28;20125;-89
2023/01/21 00:50:42;;;;;;;7.03;3.17;;;;;;;;;;8267865;28;20097;-82
2023/01/21 00:54:46;;;;;;;11.18;4.60;;;;;;;;;;8259650;28;20058;-85
2023/01/21 00:58:49;;;;;;;3.88;2.67;;;;;;;;;;8260321;28;20050;-86
2023/01/21 01:02:52;;;;;;;11.07;4.63;;;;;;;;;;8247481;28;20073;-84
2023/01/21 01:06:55;;;;;;;5.43;3.38;;;;;;;;;;8250316;28;20046;-83
2023/01/21 01:11:00;;;;;;;8.27;3.63;;;;;;;;;;8264800;28;20046;-87
2023/01/21 01:15:03;;;;;;;11.98;5.35;;;;;;;;;;8265070;28;20054;-83
2023/01/21 01:19:06;;;;;;;4.53;2.85;;;;;;;;;;8265914;28;20134;-90
2023/01/21 01:23:09;;;;;;;11.88;3.45;;;;;;;;;;8263615;28;20197;-84
2023/01/21 01:27:13;;;;;;;10.55;3.90;;;;;;;;;;8261721;28;20556;-86
2023/01/21 01:31:18;;;;;;;8.25;3.85;;;;;;;;;;8263618;28;20470;-85
2023/01/21 01:35:21;;;;;;;8.02;4.47;;;;;;;;;;8258997;28;20046;-87
2023/01/21 01:39:24;;;;;;;7.07;3.30;;;;;;;;;;8251694;28;20039;-91
2023/01/21 01:43:49;;;;;;;11.70;5.13;;;;;;;;;;8256311;28;20077;-87
2023/01/21 01:47:58;;;;;;;6.68;3.03;;;;;;;;;;8264076;28;20046;-85
2023/01/21 01:52:05;;;;;;;9.32;3.67;;;;;;;;;;8264201;28;20078;-85
2023/01/21 01:56:08;;;;;;;11.15;5.20;;;;;;;;;;8264452;28;20775;-90
2023/01/21 02:00:14;;;;;;;7.95;4.28;;;;;;;;;;8264049;28;20122;-83
2023/01/21 02:04:21;;;;;;;8.73;3.80;;;;;;;;;;8265055;28;20048;-89
2023/01/21 02:08:26;;;;;;;7.25;3.65;;;;;;;;;;8266011;28;20108;-84
2023/01/21 02:12:29;;;;;;;7.35;4.10;;;;;;;;;;8269409;28;20038;-89
2023/01/21 02:16:54;;;;;;;9.23;3.75;;;;;;;;;;8269922;28;20053;-84
2023/01/21 02:21:19;;;;;;;6.20;3.35;;;;;;;;;;8269798;28;20042;-83
2023/01/21 02:25:55;;;;;;;7.95;4.25;;;;;;;;;;8267308;28;20073;-84
2023/01/21 02:30:40;;;;;;;6.68;2.97;;;;;;;;;;8262188;28;20044;-83
2023/01/21 02:34:52;;;;;;;4.30;2.63;;;;;;;;;;8264452;28;20629;-84
2023/01/21 02:39:03;;;;;;;5.75;2.83;;;;;;;;;;8269059;28;20049;-83
2023/01/21 02:43:11;;;;;;;5.23;2.73;;;;;;;;;;8259344;28;20046;-82
2023/01/21 02:47:23;;;;;;;2.97;2.10;;;;;;;;;;8268890;28;20506;-82
2023/01/21 02:51:27;;;;;;;6.18;2.47;;;;;;;;;;8268933;28;20049;-81
2023/01/21 02:55:32;;;;;;;7.20;3.30;;;;;;;;;;8260540;28;20268;-83
2023/01/21 02:59:36;;;;;;;4.93;2.72;;;;;;;;;;8269021;28;20052;-83
2023/01/21 03:04:03;;;;;;;5.30;2.75;;;;;;;;;;8269353;28;20544;-91
2023/01/21 03:08:13;;;;;;;2.28;1.58;;;;;;;;;;8268955;28;20074;-86
2023/01/21 03:12:30;;;;;;;5.45;2.70;;;;;;;;;;8268650;28;20053;-88
2023/01/21 03:16:57;;;;;;;4.63;2.60;;;;;;;;;;8268217;28;20054;-89
2023/01/21 03:21:05;;;;;;;5.07;3.10;;;;;;;;;;8267783;28;20061;-89
2023/01/21 03:25:13;;;;;;;8.40;2.80;;;;;;;;;;8268057;28;20122;-87
2023/01/21 03:29:21;;;;;;;3.08;2.00;;;;;;;;;;8267602;28;20848;-85
2023/01/21 03:33:24;;;;;;;3.60;2.30;;;;;;;;;;8265930;28;20042;-90
2023/01/21 03:37:31;;;;;;;3.72;1.92;;;;;;;;;;8267425;28;20100;-89
2023/01/21 03:41:39;;;;;;;4.97;2.72;;;;;;;;;;8267594;28;20048;-88
2023/01/21 03:45:46;;;;;;;5.05;2.83;;;;;;;;;;8267432;28;20053;-86
2023/01/21 03:49:56;;;;;;;3.13;2.35;;;;;;;;;;8267959;28;20509;-85
2023/01/21 06:48:57;;;;;;;3.38;2.00;;;;;;;;;;8453698;27;20483;-83
2023/01/21 06:53:00;;;;;;;2.88;1.95;;;;;;;;;;8417102;28;20115;-89
2023/01/21 06:57:04;;;;;;;6.60;3.35;;;;;;;;;;8422759;28;20044;-86
2023/01/21 07:01:06;;;;;;;5.47;3.83;;;;;;;;;;8422846;28;20452;-83
2023/01/21 07:05:13;;;;;;;7.30;4.63;;;;;;;;;;8423585;28;20044;-82
2023/01/21 07:09:16;;;;;;;13.70;6.60;;;;;;;;;;8421314;28;20056;-91
2023/01/21 07:13:19;;;;;;;6.60;3.60;;;;;;;;;;8422181;28;20445;-84
2023/01/21 07:17:22;;;;;;;9.95;3.30;;;;;;;;;;8419773;28;20040;-87
2023/01/21 07:21:27;;;;;;;7.95;3.72;;;;;;;;;;8421084;28;20490;-84
2023/01/21 07:25:31;;;;;;;4.78;2.80;;;;;;;;;;8421196;28;20120;-85
2023/01/21 07:29:34;;;;;;;10.82;2.70;;;;;;;;;;8422458;28;20127;-86
2023/01/21 07:33:37;;;;;;;5.95;2.72;;;;;;;;;;8420441;28;20068;-85
2023/01/21 07:37:41;;;;;;;5.30;2.67;;;;;;;;;;8423179;28;20055;-82
2023/01/21 07:41:45;;;;;;;5.53;2.95;;;;;;;;;;8424541;28;20509;-90
2023/01/21 07:45:48;;;;;;;2.70;2.22;;;;;;;;;;8424416;28;20143;-93
2023/01/21 07:49:51;;;;;;;6.07;2.83;;;;;;;;;;8401968;28;20048;-86
2023/01/21 07:53:59;;;;;;;5.88;2.88;;;;;;;;;;8401701;28;20056;-93
2023/01/21 07:58:03;;;;;;;9.30;3.47;;;;;;;;;;8401158;28;20041;-89
2023/01/21 08:02:06;;;;;;;10.73;3.65;;;;;;;;;;8388620;28;20380;-92
2023/01/21 08:06:09;;;;;;;7.22;3.55;;;;;;;;;;8400727;28;20047;-83
2023/01/21 08:10:14;;;;;;;9.00;2.70;;;;;;;;;;8388411;28;20046;-92
2023/01/21 08:14:18;;;;;;;7.35;3.50;;;;;;;;;;8398417;28;20052;-87
2023/01/21 08:18:22;;;;;;;6.72;3.58;;;;;;;;;;8400986;28;20051;-83
2023/01/21 08:22:25;;;;;;;4.25;2.92;;;;;;;;;;8400486;28;20049;-83
2023/01/21 08:26:29;;;;;;;6.75;3.72;;;;;;;;;;8394843;28;20048;-86
2023/01/21 08:30:32;;;;;;;16.30;6.75;;;;;;;;;;8395408;28;20104;-87
2023/01/21 08:34:35;;;;;;;9.15;4.32;;;;;;;;;;8394611;28;20391;-85
2023/01/21 08:38:39;;;;;;;8.18;4.28;;;;;;;;;;8394525;28;20059;-85
2023/01/21 08:42:44;;;;;;;11.13;5.25;;;;;;;;;;8394217;28;20043;-87
2023/01/21 08:46:46;;;;;;;10.63;4.05;;;;;;;;;;8393843;28;20102;-83
2023/01/21 08:50:49;;;;;;;13.40;4.93;;;;;;;;;;8393293;28;20040;-85
2023/01/21 08:54:52;;;;;;;12.85;5.10;;;;;;;;;;8385911;28;20044;-91
2023/01/21 08:58:58;;;;;;;17.83;6.85;;;;;;;;;;8393796;28;20123;-89
2023/01/21 09:03:03;;;;;;;11.55;5.07;;;;;;;;;;8386561;28;20048;-84
2023/01/21 09:07:07;;;;;;;14.82;6.32;;;;;;;;;;8391126;28;20040;-86
2023/01/21 09:11:10;;;;;;;8.45;4.47;;;;;;;;;;8394716;28;20048;-87
2023/01/21 09:15:15;;;;;;;16.25;7.13;;;;;;;;;;8384155;28;20067;-87
2023/01/21 09:19:19;;;;;;;12.45;5.75;;;;;;;;;;8401682;28;20682;-88
2023/01/21 09:23:25;;;;;;;19.52;9.48;;;;;;;;;;8417542;28;20074;-87
2023/01/21 09:27:33;;;;;;;14.70;8.07;;;;;;;;;;8407699;28;20044;-88
2023/01/21 09:31:39;;;;;;;20.80;8.45;;;;;;;;;;8374038;28;20059;-87
2023/01/21 09:35:43;;;;;;;15.95;7.30;;;;;;;;;;8391612;28;20127;-89
2023/01/21 09:39:45;;;;;;;19.63;7.38;;;;;;;;;;8412540;28;20048;-89
2023/01/21 09:43:53;;;;;;;9.82;4.82;;;;;;;;;;8413618;28;20074;-86
2023/01/21 09:47:59;;;;;;;9.20;4.88;;;;;;;;;;8388335;28;20114;-87
2023/01/21 09:52:14;;;;;;;17.70;8.70;;;;;;;;;;8394418;28;20481;-89
2023/01/21 09:56:26;;;;;;;11.23;5.30;;;;;;;;;;8392551;28;20048;-86
2023/01/21 10:00:37;;;;;;;5.82;3.30;;;;;;;;;;8394682;28;20123;-89
2023/01/21 10:04:48;;;;;;;16.15;5.75;;;;;;;;;;8377204;28;20457;-87
2023/01/21 10:09:15;;;;;;;18.10;8.13;;;;;;;;;;8386764;28;20056;-88
2023/01/21 10:13:52;;;;;;;15.93;8.05;;;;;;;;;;8390363;28;20450;-92
2023/01/21 10:18:08;;;;;;;11.50;5.35;;;;;;;;;;8379849;28;20174;-90
2023/01/21 10:22:19;;;;;;;9.27;5.07;;;;;;;;;;8389990;28;20052;-91
2023/01/21 10:26:22;;;;;;;11.32;5.63;;;;;;;;;;8385533;28;20044;-93
2023/01/21 10:30:32;;;;;;;18.65;7.80;;;;;;;;;;8397883;28;20476;-93
2023/01/21 10:35:11;;;;;;;17.05;8.00;;;;;;;;;;8402582;28;20032;-95
2023/01/21 10:39:43;;;;;;;23.95;11.25;;;;;;;;;;8319129;28;20053;-88
2023/01/21 10:43:53;;;;;;;26.92;10.45;;;;;;;;;;8361765;28;20056;-91
2023/01/21 10:48:04;;;;;;;23.83;8.68;;;;;;;;;;8353226;28;20521;-90
2023/01/21 10:52:12;;;;;;;19.45;8.68;;;;;;;;;;8357429;28;20056;-94
2023/01/21 10:56:31;;;;;;;20.58;10.60;;;;;;;;;;8339230;28;20048;-91
2023/01/21 11:00:48;;;;;;;12.88;7.88;;;;;;;;;;8352432;28;20081;-93
2023/01/21 11:04:52;;;;;;;11.43;6.38;;;;;;;;;;8392590;28;20060;-91
2023/01/21 11:08:59;;;;;;;10.65;5.18;;;;;;;;;;8398861;28;20098;-92
2023/01/21 11:13:03;;;;;;;8.98;4.28;;;;;;;;;;8387540;28;20079;-90
2023/01/21 11:17:07;;;;;;;8.93;5.25;;;;;;;;;;8388480;28;20125;-93
2023/01/21 11:21:17;;;;;;;11.23;6.82;;;;;;;;;;8389821;28;20041;-93
2023/01/21 11:25:37;;;;;;;12.32;6.57;;;;;;;;;;8388707;28;20059;-90
2023/01/21 11:29:42;;;;;;;11.55;6.65;;;;;;;;;;8399149;28;20426;-90
2023/01/21 11:33:46;;;;;;;10.10;5.00;;;;;;;;;;8395495;28;20136;-90
2023/01/21 11:37:48;;;;;;;10.13;5.85;;;;;;;;;;8395272;28;20064;-87
2023/01/21 11:41:52;;;;;;;12.88;7.85;;;;;;;;;;8389636;28;20052;-87
2023/01/21 11:45:59;;;;;;;15.10;7.70;;;;;;;;;;8391239;28;20057;-87
2023/01/21 11:50:11;;;;;;;7.10;3.90;;;;;;;;;;8391273;28;20566;-89
2023/01/21 11:54:15;;;;;;;5.68;3.58;;;;;;;;;;8392270;28;20470;-90
2023/01/21 11:58:22;;;;;;;6.47;4.28;;;;;;;;;;8392447;28;20518;-89
2023/01/21 12:02:31;;;;;;;10.70;6.40;;;;;;;;;;8394484;28;20174;-87
2023/01/21 12:06:35;;;;;;;11.38;6.20;;;;;;;;;;8396075;28;20625;-86
2023/01/21 12:10:44;;;;;;;12.25;7.88;;;;;;;;;;8394174;28;20048;-86
2023/01/21 12:14:52;;;;;;;15.40;7.28;;;;;;;;;;8386904;28;20189;-90
2023/01/21 12:19:32;;;;;;;11.35;5.60;;;;;;;;;;8388785;28;20497;-83
2023/01/21 12:23:52;;;;;;;6.22;3.63;;;;;;;;;;8384888;28;20044;-85
2023/01/21 12:28:17;;;;;;;7.82;4.65;;;;;;;;;;8391734;28;20045;-88
2023/01/21 12:32:25;;;;;;;8.82;4.57;;;;;;;;;;8390881;28;20040;-85
2023/01/21 12:36:32;;;;;;;10.57;5.15;;;;;;;;;;8387020;28;20751;-85
2023/01/21 12:40:44;;;;;;;27.92;10.95;;;;;;;;;;8389588;28;20047;-84
2023/01/21 12:44:51;;;;;;;7.75;4.47;;;;;;;;;;8389698;28;20127;-86
2023/01/21 12:48:57;;;;;;;11.40;5.07;;;;;;;;;;8386644;28;20052;-86
2023/01/21 12:53:17;;;;;;;44.30;16.40;;;;;;;;;;8386744;28;20491;-86
2023/01/21 12:57:26;;;;;;;7.90;3.63;;;;;;;;;;8386172;28;20045;-85
2023/01/21 13:01:43;;;;;;;17.63;7.53;;;;;;;;;;8389592;28;20055;-87
2023/01/21 13:05:53;;;;;;;11.70;6.82;;;;;;;;;;8389185;28;20045;-87
2023/01/21 13:10:06;;;;;;;11.55;6.30;;;;;;;;;;8392454;28;20040;-83
2023/01/21 13:14:24;;;;;;;15.02;9.48;;;;;;;;;;8396007;28;20044;-87
2023/01/21 13:18:34;;;;;;;7.53;3.97;;;;;;;;;;8393450;28;20119;-84
2023/01/21 13:22:43;;;;;;;12.25;6.05;;;;;;;;;;8392666;28;21477;-86
2023/01/21 13:26:56;;;;;;;7.18;4.13;;;;;;;;;;8383735;28;20055;-87
2023/01/21 13:31:07;;;;;;;6.32;3.38;;;;;;;;;;8609748;22;20166;-88
2023/01/21 13:35:25;;;;;;;5.82;3.33;;;;;;;;;;8328622;28;20053;-89
2023/01/21 13:39:38;;;;;;;5.95;2.92;;;;;;;;;;8323451;28;20485;-88
2023/01/21 13:43:57;;;;;;;21.15;9.65;;;;;;;;;;8344689;28;20120;-88
2023/01/21 13:48:21;;;;;;;16.55;8.93;;;;;;;;;;8333244;28;20095;-88
2023/01/21 13:52:29;;;;;;;16.00;8.27;;;;;;;;;;8334445;28;20095;-87
2023/01/21 13:56:46;;;;;;;16.65;8.40;;;;;;;;;;8346521;28;20095;-87
2023/01/21 14:00:57;;;;;;;19.58;9.35;;;;;;;;;;8353493;28;20131;-88
2023/01/21 14:05:08;;;;;;;36.25;17.15;;;;;;;;;;8345517;28;20045;-87
2023/01/21 14:09:18;;;;;;;15.05;9.70;;;;;;;;;;8329901;28;20045;-89
2023/01/21 14:13:50;;;;;;;26.20;11.45;;;;;;;;;;8329150;28;20038;-88
2023/01/21 14:18:13;;;;;;;19.13;10.13;;;;;;;;;;8325807;28;20041;-88
2023/01/21 14:22:34;;;;;;;21.08;12.10;;;;;;;;;;8328399;28;20041;-89
2023/01/21 14:27:01;;;;;;;13.30;7.32;;;;;;;;;;8324126;28;20123;-90
2023/01/21 14:31:09;;;;;;;23.38;11.82;;;;;;;;;;8335452;28;20608;-87
2023/01/21 14:35:22;;;;;;;21.92;10.23;;;;;;;;;;8329830;28;20477;-88
2023/01/21 14:39:39;;;;;;;23.42;13.30;;;;;;;;;;8328383;28;20091;-89
2023/01/21 14:43:51;;;;;;;40.63;15.77;;;;;;;;;;8328963;28;20136;-88
2023/01/21 14:47:56;;;;;;;27.98;14.75;;;;;;;;;;8329105;28;20045;-87
2023/01/21 14:52:01;;;;;;;42.17;20.00;;;;;;;;;;8331657;28;20068;-90
2023/01/21 14:56:11;;;;;;;19.40;10.45;;;;;;;;;;8339074;28;20599;-88
2023/01/21 15:00:22;;;;;;;22.40;12.27;;;;;;;;;;8335279;28;20047;-88
2023/01/21 15:04:29;;;;;;;18.10;8.85;;;;;;;;;;8349110;28;20056;-90
2023/01/21 15:08:42;;;;;;;15.07;7.75;;;;;;;;;;8335726;28;20072;-90
2023/01/21 15:12:52;;;;;;;12.25;5.10;;;;;;;;;;8349022;28;20484;-90
2023/01/21 15:16:56;;;;;;;13.85;5.25;;;;;;;;;;8332222;28;20463;-90
2023/01/21 15:21:00;;;;;;;40.17;15.75;;;;;;;;;;8348783;28;20175;-90
2023/01/21 15:25:20;;;;;;;23.23;8.52;;;;;;;;;;8354092;28;20049;-88
2023/01/21 15:29:32;;;;;;;40.03;13.02;;;;;;;;;;8349214;28;20064;-91
2023/01/21 15:33:41;;;;;;;;;;;;;;;;;;8333972;28;20045;-90
2023/01/21 15:37:46;;;;;;;36.55;17.08;;;;;;;;;;8339518;28;19974;-89
2023/01/21 15:42:05;;;;;;;80.13;28.42;;;;;;;;;;8341203;28;20124;-89
2023/01/21 15:46:24;;;;;;;198.07;37.45;;;;;;;;;;8323401;28;20134;-88
2023/01/21 15:50:35;;;;;;;289.35;106.63;;;;;;;;;;8347780;28;20038;-87
2023/01/21 15:54:46;;;;;;;195.53;72.60;;;;;;;;;;8333381;28;20053;-90
2023/01/21 15:59:00;;;;;;;32.42;16.63;;;;;;;;;;8335126;28;20073;-89
2023/01/21 16:03:16;;;;;;;35.85;18.10;;;;;;;;;;8333781;28;20128;-86
2023/01/21 16:07:28;;;;;;;69.72;29.75;;;;;;;;;;8333393;28;20129;-86
2023/01/21 16:11:59;;;;;;;27.52;14.48;;;;;;;;;;8333770;28;20126;-87
2023/01/21 16:16:16;;;;;;;36.40;16.13;;;;;;;;;;8334874;28;20084;-87
2023/01/21 16:20:20;;;;;;;71.78;25.00;;;;;;;;;;8332501;28;20050;-90
2023/01/21 16:24:26;;;;;;;77.43;30.60;;;;;;;;;;8326059;28;20076;-89
2023/01/21 16:28:42;;;;;;;66.50;24.00;;;;;;;;;;8337522;28;20045;-90
2023/01/21 16:32:48;;;;;;;73.25;30.13;;;;;;;;;;8328047;28;20531;-91
2023/01/21 16:36:52;;;;;;;71.10;31.13;;;;;;;;;;8327301;28;20049;-91
2023/01/21 16:41:22;;;;;;;43.22;20.67;;;;;;;;;;8323402;28;20061;-90
2023/01/21 16:45:27;;;;;;;128.55;37.90;;;;;;;;;;8325285;28;20048;-93
2023/01/21 16:49:34;;;;;;;52.35;24.13;;;;;;;;;;8326518;28;20129;-90
2023/01/21 16:53:38;;;;;;;41.20;17.52;;;;;;;;;;8320892;28;20042;-91
2023/01/21 16:57:49;;;;;;;40.72;19.13;;;;;;;;;;8327045;28;20045;-90
2023/01/21 17:01:52;;;;;;;38.30;17.23;;;;;;;;;;8328089;28;20049;-88
2023/01/21 17:06:00;;;;;;;153.05;53.53;;;;;;;;;;8326711;28;20045;-89
2023/01/21 17:10:06;;;;;;;98.50;41.40;;;;;;;;;;8324080;28;20065;-92
2023/01/21 17:14:10;;;;;;;132.93;42.03;;;;;;;;;;8325666;28;20046;-92
2023/01/21 17:18:21;;;;;;;93.20;29.70;;;;;;;;;;8317852;28;20465;-90
2023/01/21 17:22:30;;;;;;;53.10;23.83;;;;;;;;;;8315849;28;20117;-90
2023/01/21 17:26:37;;;;;;;49.85;22.90;;;;;;;;;;8325649;28;20399;-90
2023/01/21 17:30:41;;;;;;;46.60;21.77;;;;;;;;;;8321514;28;20441;-93
2023/01/21 17:35:10;;;;;;;50.35;23.42;;;;;;;;;;8321026;28;20087;-89
2023/01/21 17:39:55;;;;;;;43.28;21.08;;;;;;;;;;8322402;28;20445;-89
2023/01/21 17:44:01;;;;;;;65.50;29.88;;;;;;;;;;8319689;28;20049;-90
2023/01/21 17:48:06;;;;;;;56.78;28.13;;;;;;;;;;8323561;28;20048;-89
2023/01/21 17:52:21;;;;;;;75.65;34.15;;;;;;;;;;8322702;28;20037;-89
2023/01/21 17:56:40;;;;;;;101.50;36.15;;;;;;;;;;8318512;28;20041;-89
2023/01/21 18:00:46;;;;;;;73.40;27.00;;;;;;;;;;8311036;28;20050;-89
2023/01/21 18:04:50;;;;;;;79.82;34.25;;;;;;;;;;8318851;28;20096;-89
2023/01/21 18:08:57;;;;;;;91.38;37.10;;;;;;;;;;8329570;28;20152;-89
2023/01/21 18:13:02;;;;;;;90.97;38.55;;;;;;;;;;8311985;28;20436;-90
2023/01/21 18:17:06;;;;;;;88.18;38.97;;;;;;;;;;8312122;28;20057;-89
2023/01/21 18:21:19;;;;;;;84.20;37.58;;;;;;;;;;8317469;28;20632;-90
2023/01/21 18:25:23;;;;;;;98.60;45.88;;;;;;;;;;8313547;28;20046;-90
2023/01/21 18:29:32;;;;;;;65.05;31.08;;;;;;;;;;8313797;28;20057;-88
2023/01/21 18:33:36;;;;;;;151.18;63.45;;;;;;;;;;8317243;28;20044;-89
2023/01/21 18:37:40;;;;;;;94.95;42.58;;;;;;;;;;8308101;28;20068;-87
2023/01/21 18:41:44;;;;;;;132.27;50.15;;;;;;;;;;8316224;28;20045;-88
2023/01/21 18:45:49;;;;;;;127.50;51.80;;;;;;;;;;8311209;28;20081;-89
2023/01/21 18:49:53;;;;;;;229.63;94.43;;;;;;;;;;8314863;28;20041;-89
2023/01/21 18:53:59;;;;;;;110.13;45.45;;;;;;;;;;8314716;28;20064;-89
2023/01/21 18:58:05;;;;;;;159.52;63.75;;;;;;;;;;8316732;28;20054;-90
2023/01/21 19:02:16;;;;;;;104.55;41.90;;;;;;;;;;8315411;28;20041;-88
2023/01/21 19:06:22;;;;;;;121.78;50.63;;;;;;;;;;8314260;28;20061;-86
2023/01/21 19:10:25;;;;;;;45.20;20.35;;;;;;;;;;8299157;28;20132;-87
2023/01/21 19:14:29;;;;;;;95.07;36.38;;;;;;;;;;8317425;28;20045;-88
2023/01/21 19:18:34;;;;;;;100.35;38.05;;;;;;;;;;8315562;28;20137;-87
2023/01/21 19:22:39;;;;;;;62.50;30.05;;;;;;;;;;8313235;28;20440;-87
2023/01/21 19:26:45;;;;;;;69.68;30.75;;;;;;;;;;8320980;28;20100;-88
2023/01/21 19:30:53;;;;;;;83.45;32.45;;;;;;;;;;8302418;28;20058;-87
2023/01/21 19:35:00;;;;;;;108.53;44.17;;;;;;;;;;8313984;28;20056;-87
2023/01/21 19:39:16;;;;;;;146.38;49.85;;;;;;;;;;8318897;28;20045;-88
2023/01/21 19:43:21;;;;;;;69.22;29.90;;;;;;;;;;8321896;28;20043;-88
2023/01/21 19:47:29;;;;;;;45.33;20.58;;;;;;;;;;8321435;28;20080;-88
2023/01/21 19:51:36;;;;;;;196.85;66.18;;;;;;;;;;8318994;28;20631;-87
2023/01/21 19:55:43;;;;;;;214.18;76.85;;;;;;;;;;8324355;28;20072;-87
2023/01/21 19:59:50;;;;;;;99.10;37.90;;;;;;;;;;8321988;28;20052;-88
2023/01/21 20:03:56;;;;;;;249.95;96.38;;;;;;;;;;8314215;28;20046;-88
2023/01/21 20:08:05;;;;;;;74.25;31.33;;;;;;;;;;8319012;28;20852;-88
2023/01/21 20:12:14;;;;;;;63.15;28.02;;;;;;;;;;8322247;28;20484;-89
2023/01/21 20:16:22;;;;;;;55.30;24.20;;;;;;;;;;8328987;28;20049;-86
2023/01/21 20:20:27;;;;;;;29.52;14.60;;;;;;;;;;8333670;28;20116;-87
2023/01/21 20:24:36;;;;;;;64.68;25.33;;;;;;;;;;8333398;28;20500;-90
2023/01/21 20:28:46;;;;;;;130.40;45.20;;;;;;;;;;8334338;28;20401;-88
2023/01/21 20:32:52;;;;;;;88.07;31.83;;;;;;;;;;8334269;28;20057;-91
2023/01/21 20:36:58;;;;;;;96.10;36.05;;;;;;;;;;8333128;28;20056;-89
2023/01/21 20:41:11;;;;;;;51.25;21.88;;;;;;;;;;8333608;28;20052;-90
2023/01/21 20:45:20;;;;;;;55.03;24.88;;;;;;;;;;8332808;28;20485;-87
2023/01/21 20:49:26;;;;;;;40.03;16.70;;;;;;;;;;8332477;28;20121;-86
2023/01/21 20:53:30;;;;;;;41.15;17.98;;;;;;;;;;8333444;28;20119;-86
2023/01/21 20:57:37;;;;;;;68.45;28.52;;;;;;;;;;8333007;28;20049;-90
2023/01/21 21:01:42;;;;;;;67.22;28.17;;;;;;;;;;8346420;28;20470;-86
2023/01/21 21:05:46;;;;;;;40.25;17.92;;;;;;;;;;8332700;28;20049;-88
2023/01/21 21:09:53;;;;;;;31.10;13.68;;;;;;;;;;8331956;28;20053;-86
2023/01/21 21:14:00;;;;;;;33.72;14.63;;;;;;;;;;8331370;28;20042;-86
2023/01/21 21:18:07;;;;;;;32.58;13.60;;;;;;;;;;8332072;28;20172;-87
2023/01/21 21:22:12;;;;;;;62.55;26.70;;;;;;;;;;8331911;28;20552;-88
2023/01/21 21:26:19;;;;;;;93.72;41.75;;;;;;;;;;8332055;28;20504;-85
2023/01/21 21:30:27;;;;;;;84.32;36.97;;;;;;;;;;8298256;28;20061;-88
2023/01/21 21:34:30;;;;;;;56.38;25.48;;;;;;;;;;8319292;28;20061;-86
2023/01/21 21:38:34;;;;;;;34.85;15.18;;;;;;;;;;8331466;28;20048;-88
2023/01/21 21:51:22;;;;;;;59.30;22.85;;;;;;;;;;8322786;28;20489;-90
2023/01/21 21:55:26;;;;;;;107.25;40.67;;;;;;;;;;8330837;28;20046;-86
2023/01/21 21:59:30;;;;;;;126.60;45.53;;;;;;;;;;8330947;28;20557;-91
2023/01/21 22:03:42;;;;;;;98.18;38.83;;;;;;;;;;8330268;28;20037;-86
2023/01/21 22:07:48;;;;;;;51.05;23.23;;;;;;;;;;8330460;28;20056;-91
2023/01/21 22:11:51;;;;;;;52.92;25.25;;;;;;;;;;8318201;28;20072;-88
2023/01/21 22:15:55;;;;;;;55.22;25.73;;;;;;;;;;8330735;28;20053;-89
2023/01/21 22:20:00;;;;;;;42.03;19.38;;;;;;;;;;8330181;28;20480;-90
2023/01/21 22:24:05;;;;;;;47.92;23.15;;;;;;;;;;8330367;28;20045;-89
2023/01/21 22:28:08;;;;;;;73.18;33.03;;;;;;;;;;8330293;28;20056;-88
2023/01/21 22:32:11;;;;;;;57.33;27.45;;;;;;;;;;8329844;28;20057;-87
2023/01/21 22:36:17;;;;;;;36.70;15.70;;;;;;;;;;8329818;28;20049;-85
2023/01/21 22:40:20;;;;;;;29.73;14.10;;;;;;;;;;8330010;28;20051;-89
2023/01/21 22:44:23;;;;;;;28.33;12.27;;;;;;;;;;8329814;28;20124;-87
2023/01/21 22:48:26;;;;;;;45.15;17.75;;;;;;;;;;8329676;28;20102;-85
2023/01/21 22:52:31;;;;;;;27.73;13.38;;;;;;;;;;8329498;28;20469;-86
2023/01/21 22:56:34;;;;;;;33.45;15.38;;;;;;;;;;8329681;28;20124;-89
2023/01/21 23:00:40;;;;;;;25.23;12.70;;;;;;;;;;8329731;28;20115;-85
2023/01/21 23:04:44;;;;;;;32.22;17.58;;;;;;;;;;8329445;28;20073;-86
2023/01/21 23:08:49;;;;;;;28.40;12.80;;;;;;;;;;8329447;28;20045;-86
2023/01/21 23:12:52;;;;;;;29.48;12.30;;;;;;;;;;8329371;28;20420;-89
2023/01/21 23:16:55;;;;;;;112.38;37.75;;;;;;;;;;8329272;28;20540;-89
2023/01/21 23:20:58;;;;;;;26.27;11.88;;;;;;;;;;8334796;28;20049;-89
2023/01/21 23:25:02;;;;;;;71.43;26.60;;;;;;;;;;8335120;28;20045;-86
2023/01/21 23:29:05;;;;;;;76.82;27.42;;;;;;;;;;8334943;28;20140;-87
2023/01/21 23:33:09;;;;;;;168.02;53.28;;;;;;;;;;8335146;28;20120;-87
2023/01/21 23:37:12;;;;;;;103.68;36.50;;;;;;;;;;8335439;28;20548;-87
2023/01/21 23:41:18;;;;;;;51.97;23.05;;;;;;;;;;8336407;28;20130;-92
2023/01/21 23:45:21;;;;;;;37.35;15.68;;;;;;;;;;8353390;28;20069;-90
2023/01/21 23:49:24;;;;;;;23.80;11.00;;;;;;;;;;8340617;28;20041;-93
2023/01/21 23:53:27;;;;;;;29.00;11.00;;;;;;;;;;8337509;28;20049;-92
2023/01/21 23:57:32;;;;;;;23.83;11.95;;;;;;;;;;8332090;28;20041;-88
